Time;durP1;ratioP1;P1;durP2;ratioP2;P2;SDS_P1;SDS_P2;PMS_P1;PMS_P2;Temp;Humidity;BMP_temperature;BMP_pressure;BME280_temperature;BME280_humidity;BME280_pressure;Samples;Min_cycle;Max_cycle;Signal;HPM_P1;HPM_P2
2024/04/20 00:02:52;;;;;;;10.35;2.00;;;;;;;;;;11037960;26;20021;-61
2024/04/20 00:07:53;;;;;;;2.15;1.65;;;;;;;;;;11043399;26;20005;-61
2024/04/20 00:12:54;;;;;;;3.70;1.85;;;;;;;;;;11043936;26;20113;-61
2024/04/20 00:17:59;;;;;;;5.18;2.20;;;;;;;;;;11044277;26;20480;-61
2024/04/20 00:23:00;;;;;;;2.63;1.95;;;;;;;;;;11046539;26;20082;-61
2024/04/20 00:28:01;;;;;;;1.70;1.52;;;;;;;;;;11052257;26;20332;-61
2024/04/20 00:33:02;;;;;;;2.40;1.70;;;;;;;;;;11045337;26;20095;-62
2024/04/20 00:38:03;;;;;;;2.33;1.63;;;;;;;;;;11032929;26;20527;-62
2024/04/20 00:43:05;;;;;;;2.63;1.60;;;;;;;;;;11038224;26;20083;-63
2024/04/20 00:48:06;;;;;;;1.67;1.30;;;;;;;;;;11049935;26;20082;-63
2024/04/20 00:53:11;;;;;;;3.70;1.50;;;;;;;;;;11049869;26;20102;-63
2024/04/20 00:58:14;;;;;;;2.08;1.50;;;;;;;;;;11049043;26;20033;-64
2024/04/20 01:03:15;;;;;;;2.33;1.60;;;;;;;;;;11020156;26;20015;-64
2024/04/20 01:08:16;;;;;;;2.35;1.65;;;;;;;;;;11041194;26;20011;-64
2024/04/20 01:13:28;;;;;;;1.98;1.60;;;;;;;;;;11007631;26;20437;-61
2024/04/20 01:18:29;;;;;;;3.08;1.63;;;;;;;;;;11040582;26;20001;-61
2024/04/20 01:23:30;;;;;;;3.00;1.48;;;;;;;;;;11027944;26;20540;-61
2024/04/20 01:28:31;;;;;;;1.45;1.35;;;;;;;;;;11033471;26;20033;-60
2024/04/20 01:33:32;;;;;;;1.70;1.50;;;;;;;;;;11042093;26;20042;-60
2024/04/20 01:38:34;;;;;;;1.60;1.50;;;;;;;;;;11049939;26;20012;-60
2024/04/20 01:43:35;;;;;;;4.93;1.38;;;;;;;;;;11021189;26;20024;-60
2024/04/20 01:48:36;;;;;;;2.88;1.77;;;;;;;;;;11028597;26;20100;-62
2024/04/20 01:53:37;;;;;;;1.52;1.42;;;;;;;;;;11052087;26;20363;-61
2024/04/20 01:58:38;;;;;;;2.17;1.50;;;;;;;;;;11058293;26;20025;-62
2024/04/20 02:03:40;;;;;;;5.13;1.55;;;;;;;;;;11040852;26;20116;-62
2024/04/20 02:08:45;;;;;;;3.83;1.30;;;;;;;;;;11005689;26;20018;-62
2024/04/20 02:13:46;;;;;;;1.35;1.25;;;;;;;;;;11032669;26;20092;-63
2024/04/20 02:18:47;;;;;;;2.20;1.35;;;;;;;;;;11057096;26;20033;-63
2024/04/20 02:23:48;;;;;;;2.28;1.40;;;;;;;;;;11036177;26;20953;-63
2024/04/20 02:28:49;;;;;;;1.65;1.30;;;;;;;;;;11049536;26;20357;-63
2024/04/20 02:33:50;;;;;;;2.33;1.20;;;;;;;;;;11045148;26;20004;-63
2024/04/20 02:38:52;;;;;;;2.38;1.63;;;;;;;;;;11046284;26;20543;-62
2024/04/20 02:43:53;;;;;;;1.90;1.50;;;;;;;;;;11030935;26;20029;-62
2024/04/20 02:48:54;;;;;;;2.00;1.30;;;;;;;;;;11049242;26;20092;-62
2024/04/20 02:53:55;;;;;;;1.35;1.25;;;;;;;;;;11033855;26;20000;-60
2024/04/20 02:58:56;;;;;;;2.35;1.30;;;;;;;;;;11053173;26;20044;-62
2024/04/20 03:03:58;;;;;;;1.52;1.23;;;;;;;;;;11052403;26;20447;-62
2024/04/20 03:08:59;;;;;;;10.25;1.20;;;;;;;;;;11051347;26;20044;-62
2024/04/20 03:14:00;;;;;;;1.77;1.20;;;;;;;;;;11044019;26;20008;-62
2024/04/20 03:19:01;;;;;;;2.22;1.50;;;;;;;;;;11047315;26;20037;-62
2024/04/20 03:24:02;;;;;;;1.40;1.30;;;;;;;;;;11049262;26;20086;-62
2024/04/20 03:29:03;;;;;;;1.38;1.27;;;;;;;;;;11050844;26;20055;-62
2024/04/20 03:34:04;;;;;;;7.50;1.38;;;;;;;;;;11036874;26;20532;-62
2024/04/20 03:39:13;;;;;;;3.80;1.25;;;;;;;;;;11021123;26;20117;-61
2024/04/20 03:44:14;;;;;;;11.50;1.42;;;;;;;;;;11049165;26;20012;-61
2024/04/20 03:49:15;;;;;;;4.30;1.10;;;;;;;;;;11037929;26;20565;-62
2024/04/20 03:54:16;;;;;;;1.90;1.73;;;;;;;;;;11042306;26;20005;-62
2024/04/20 03:59:17;;;;;;;1.65;1.17;;;;;;;;;;11049980;26;20091;-62
2024/04/20 04:04:18;;;;;;;1.20;1.10;;;;;;;;;;11076136;26;20698;-62
2024/04/20 04:09:19;;;;;;;3.83;1.30;;;;;;;;;;11047291;26;20056;-62
2024/04/20 04:14:21;;;;;;;1.60;1.50;;;;;;;;;;11042422;26;20001;-62
2024/04/20 04:19:22;;;;;;;2.25;1.15;;;;;;;;;;11043187;26;20112;-62
2024/04/20 04:24:23;;;;;;;5.78;1.23;;;;;;;;;;11033412;26;20033;-62
2024/04/20 04:29:24;;;;;;;1.38;1.27;;;;;;;;;;11064704;26;20001;-62
2024/04/20 04:34:25;;;;;;;3.50;1.30;;;;;;;;;;11039053;26;20549;-61
2024/04/20 04:39:26;;;;;;;3.50;1.25;;;;;;;;;;11037026;26;20013;-61
2024/04/20 04:44:27;;;;;;;1.27;1.17;;;;;;;;;;11049488;26;20040;-61
2024/04/20 04:49:28;;;;;;;1.00;1.00;;;;;;;;;;11036550;26;20045;-61
2024/04/20 04:54:29;;;;;;;2.17;1.10;;;;;;;;;;11056057;26;20120;-61
2024/04/20 04:59:31;;;;;;;1.23;1.13;;;;;;;;;;11046378;26;20005;-61
2024/04/20 05:04:32;;;;;;;5.35;1.13;;;;;;;;;;11042943;26;20024;-62
2024/04/20 05:09:33;;;;;;;3.33;1.08;;;;;;;;;;11050238;26;20088;-62
2024/04/20 05:14:34;;;;;;;1.05;1.00;;;;;;;;;;11034584;26;20021;-63
2024/04/20 05:19:35;;;;;;;3.53;1.00;;;;;;;;;;11051037;26;20579;-62
2024/04/20 05:24:37;;;;;;;1.85;1.00;;;;;;;;;;11045059;26;20115;-62
2024/04/20 05:29:38;;;;;;;2.75;1.35;;;;;;;;;;11046555;26;20454;-62
2024/04/20 05:34:40;;;;;;;1.30;1.20;;;;;;;;;;11036342;26;20320;-62
2024/04/20 05:39:41;;;;;;;1.42;1.33;;;;;;;;;;11043119;26;20001;-62
2024/04/20 05:44:42;;;;;;;1.58;1.08;;;;;;;;;;11032511;26;20017;-62
2024/04/20 05:49:43;;;;;;;1.27;1.00;;;;;;;;;;11020389;26;20013;-61
2024/04/20 05:54:45;;;;;;;1.02;0.98;;;;;;;;;;11035178;26;20056;-61
2024/04/20 05:59:46;;;;;;;3.65;1.30;;;;;;;;;;11058949;26;20001;-62
2024/04/20 06:04:49;;;;;;;4.00;1.23;;;;;;;;;;11026429;26;20021;-62
2024/04/20 06:09:51;;;;;;;0.85;0.85;;;;;;;;;;11032878;26;20084;-62
2024/04/20 06:14:52;;;;;;;0.80;0.80;;;;;;;;;;11045150;26;20502;-62
2024/04/20 06:19:53;;;;;;;1.70;1.50;;;;;;;;;;11057928;26;20111;-61
2024/04/20 06:24:54;;;;;;;1.20;1.10;;;;;;;;;;11046140;26;20029;-62
2024/04/20 06:29:55;;;;;;;6.72;1.17;;;;;;;;;;11043598;26;20522;-61
2024/04/20 06:34:56;;;;;;;1.45;1.35;;;;;;;;;;11015560;26;20108;-61
2024/04/20 06:39:57;;;;;;;1.85;1.10;;;;;;;;;;11047848;26;19997;-62
2024/04/20 06:44:59;;;;;;;2.72;1.65;;;;;;;;;;11045743;26;20020;-62
2024/04/20 06:50:00;;;;;;;2.45;1.02;;;;;;;;;;11052843;26;20009;-62
2024/04/20 06:55:01;;;;;;;3.72;1.42;;;;;;;;;;11045526;26;20448;-63
2024/04/20 07:00:03;;;;;;;1.67;1.15;;;;;;;;;;11025993;26;20111;-62
2024/04/20 07:05:05;;;;;;;13.13;1.00;;;;;;;;;;11028366;26;20096;-63
2024/04/20 07:10:06;;;;;;;1.55;1.00;;;;;;;;;;11063954;26;20082;-62
2024/04/20 07:15:07;;;;;;;2.42;1.13;;;;;;;;;;11051225;26;20073;-61
2024/04/20 07:20:08;;;;;;;3.10;1.30;;;;;;;;;;11054380;26;20000;-62
2024/04/20 07:25:10;;;;;;;4.18;1.02;;;;;;;;;;11051111;26;20002;-62
2024/04/20 07:30:11;;;;;;;4.97;1.17;;;;;;;;;;11046702;26;20377;-61
2024/04/20 07:35:12;;;;;;;5.65;1.23;;;;;;;;;;11061588;26;20029;-60
2024/04/20 07:40:13;;;;;;;1.73;1.10;;;;;;;;;;11030926;26;20092;-61
2024/04/20 07:45:14;;;;;;;2.10;1.10;;;;;;;;;;11040777;26;20434;-61
2024/04/20 07:50:15;;;;;;;2.50;1.20;;;;;;;;;;11036353;26;20025;-63
2024/04/20 07:55:17;;;;;;;2.50;1.42;;;;;;;;;;11050983;26;20012;-62
2024/04/20 08:00:19;;;;;;;1.10;1.00;;;;;;;;;;11087848;26;20432;-62
2024/04/20 08:05:20;;;;;;;12.85;1.50;;;;;;;;;;11064187;26;20643;-60
2024/04/20 08:10:21;;;;;;;12.68;1.83;;;;;;;;;;11061975;26;20037;-61
2024/04/20 08:15:22;;;;;;;21.58;1.40;;;;;;;;;;11064914;26;20428;-61
2024/04/20 08:20:23;;;;;;;12.57;1.50;;;;;;;;;;11049396;26;20092;-63
2024/04/20 08:25:27;;;;;;;15.90;2.10;;;;;;;;;;11045509;26;20041;-63
2024/04/20 08:30:29;;;;;;;6.28;1.90;;;;;;;;;;11051226;26;19996;-62
2024/04/20 08:35:30;;;;;;;4.18;1.95;;;;;;;;;;11039520;26;20012;-62
2024/04/20 08:40:37;;;;;;;25.23;2.40;;;;;;;;;;11018756;26;20005;-64
2024/04/20 08:45:41;;;;;;;11.23;1.95;;;;;;;;;;11004799;26;22150;-64
2024/04/20 08:50:45;;;;;;;5.60;2.13;;;;;;;;;;11015579;26;20327;-63
2024/04/20 08:55:48;;;;;;;7.13;1.67;;;;;;;;;;11049338;26;20557;-63
2024/04/20 09:00:51;;;;;;;9.45;2.05;;;;;;;;;;11015712;21;20006;-55
2024/04/20 09:05:55;;;;;;;4.30;1.95;;;;;;;;;;11016462;26;20044;-49
2024/04/20 09:10:58;;;;;;;10.57;2.38;;;;;;;;;;11039997;26;19997;-52
2024/04/20 09:15:59;;;;;;;2.92;1.60;;;;;;;;;;11010484;26;20020;-53
2024/04/20 09:21:00;;;;;;;12.48;3.05;;;;;;;;;;11015055;26;20444;-55
2024/04/20 09:26:01;;;;;;;7.28;2.22;;;;;;;;;;11075539;26;20029;-49
2024/04/20 09:31:03;;;;;;;18.58;2.40;;;;;;;;;;11005528;26;20121;-46
2024/04/20 09:36:07;;;;;;;12.80;2.30;;;;;;;;;;11034093;26;20088;-49
2024/04/20 09:41:11;;;;;;;12.38;3.08;;;;;;;;;;10990575;26;20016;-49
2024/04/20 09:46:13;;;;;;;11.40;2.50;;;;;;;;;;10969523;26;20010;-51
2024/04/20 09:51:29;;;;;;;21.45;2.95;;;;;;;;;;11018626;26;20097;-50
2024/04/20 09:56:34;;;;;;;8.90;3.17;;;;;;;;;;11050763;26;20394;-52
2024/04/20 10:01:35;;;;;;;7.80;2.88;;;;;;;;;;11025115;26;20033;-52
2024/04/20 10:06:37;;;;;;;7.88;2.20;;;;;;;;;;10973619;26;20102;-52
2024/04/20 10:11:39;;;;;;;6.93;2.30;;;;;;;;;;10981167;26;20009;-58
2024/04/20 10:16:41;;;;;;;11.65;1.90;;;;;;;;;;10961041;26;20012;-50
2024/04/20 10:21:42;;;;;;;9.48;2.45;;;;;;;;;;10990922;26;20012;-51
2024/04/20 10:26:45;;;;;;;8.80;2.72;;;;;;;;;;10980890;27;20002;-51
2024/04/20 10:31:58;;;;;;;7.90;2.00;;;;;;;;;;10979754;26;20007;-51
2024/04/20 10:37:01;;;;;;;8.73;2.08;;;;;;;;;;10936022;26;20319;-51
2024/04/20 10:42:08;;;;;;;13.65;2.92;;;;;;;;;;10972609;26;20026;-49
2024/04/20 10:47:21;;;;;;;12.90;2.40;;;;;;;;;;10993084;26;20373;-51
2024/04/20 10:52:22;;;;;;;10.85;2.45;;;;;;;;;;10987478;26;19997;-52
2024/04/20 10:57:28;;;;;;;10.40;2.00;;;;;;;;;;11009244;26;20630;-51
2024/04/20 11:02:29;;;;;;;14.27;2.08;;;;;;;;;;11030176;26;20383;-52
2024/04/20 11:07:30;;;;;;;6.55;1.83;;;;;;;;;;11032746;26;20016;-52
2024/04/20 11:12:31;;;;;;;10.75;1.98;;;;;;;;;;11051760;26;20029;-52
2024/04/20 11:17:36;;;;;;;10.63;2.03;;;;;;;;;;11042107;26;20016;-53
2024/04/20 11:22:38;;;;;;;4.20;1.75;;;;;;;;;;11029467;26;20020;-56
2024/04/20 11:27:39;;;;;;;9.55;2.47;;;;;;;;;;11034007;26;20024;-54
2024/04/20 11:32:40;;;;;;;7.57;1.98;;;;;;;;;;11010937;26;20508;-51
2024/04/20 11:37:42;;;;;;;8.00;2.10;;;;;;;;;;11026658;26;20047;-51
2024/04/20 11:42:44;;;;;;;6.22;1.83;;;;;;;;;;11034062;26;20011;-51
2024/04/20 11:47:45;;;;;;;5.78;2.10;;;;;;;;;;11072370;26;20006;-51
2024/04/20 11:58:15;;;;;;;4.22;1.77;;;;;;;;;;11029639;26;19997;-50
2024/04/20 12:03:16;;;;;;;8.85;1.92;;;;;;;;;;11048735;26;20048;-52
2024/04/20 12:08:18;;;;;;;7.53;1.60;;;;;;;;;;11019453;26;20045;-48
2024/04/20 12:13:20;;;;;;;6.18;1.70;;;;;;;;;;11036001;26;20004;-51
2024/04/20 12:18:22;;;;;;;16.65;2.13;;;;;;;;;;11006702;26;20736;-49
2024/04/20 12:23:23;;;;;;;10.18;1.70;;;;;;;;;;11027578;26;20000;-49
2024/04/20 12:28:24;;;;;;;8.32;2.08;;;;;;;;;;11020289;26;20111;-49
2024/04/20 12:33:25;;;;;;;12.35;1.75;;;;;;;;;;11049657;26;20079;-48
2024/04/20 12:38:26;;;;;;;10.25;1.60;;;;;;;;;;11026660;26;20070;-52
2024/04/20 12:43:27;;;;;;;6.28;2.03;;;;;;;;;;11034598;26;20001;-53
2024/04/20 12:48:28;;;;;;;10.50;1.65;;;;;;;;;;11036179;26;20324;-49
2024/04/20 12:53:30;;;;;;;10.27;1.92;;;;;;;;;;11034663;26;20413;-48
2024/04/20 12:58:31;;;;;;;3.13;1.67;;;;;;;;;;11036472;26;20001;-49
2024/04/20 13:03:32;;;;;;;8.93;1.90;;;;;;;;;;11039213;26;20000;-49
2024/04/20 13:08:34;;;;;;;10.85;1.73;;;;;;;;;;11037256;26;20001;-46
2024/04/20 13:13:35;;;;;;;3.35;1.50;;;;;;;;;;11022456;26;20550;-46
2024/04/20 13:18:37;;;;;;;8.10;1.50;;;;;;;;;;11052072;26;20074;-46
2024/04/20 13:23:38;;;;;;;5.20;2.08;;;;;;;;;;11018033;26;20090;-46
2024/04/20 13:28:39;;;;;;;8.13;1.63;;;;;;;;;;11003472;26;20009;-56
2024/04/20 13:33:40;;;;;;;3.67;1.48;;;;;;;;;;11017227;26;20064;-56
2024/04/20 13:38:41;;;;;;;6.18;1.48;;;;;;;;;;11026991;26;20006;-47
2024/04/20 13:43:42;;;;;;;4.75;1.58;;;;;;;;;;11054565;26;20463;-48
2024/04/20 13:48:44;;;;;;;9.40;1.85;;;;;;;;;;11045465;26;20029;-48
2024/04/20 13:53:46;;;;;;;3.53;1.10;;;;;;;;;;11056903;26;20053;-47
2024/04/20 13:58:47;;;;;;;2.05;1.10;;;;;;;;;;11035390;26;19997;-49
2024/04/20 14:03:49;;;;;;;3.88;1.83;;;;;;;;;;11007097;26;20014;-50
2024/04/20 14:08:50;;;;;;;2.83;1.77;;;;;;;;;;10999108;26;20001;-49
2024/04/20 14:13:51;;;;;;;2.92;1.30;;;;;;;;;;10959860;26;20001;-48
2024/04/20 14:18:52;;;;;;;2.70;1.15;;;;;;;;;;10989197;26;20016;-51
2024/04/20 14:23:54;;;;;;;2.13;1.40;;;;;;;;;;10987187;26;20013;-49
2024/04/20 14:28:56;;;;;;;1.60;1.10;;;;;;;;;;11000930;26;20016;-46
2024/04/20 14:33:57;;;;;;;7.30;1.23;;;;;;;;;;10984212;26;20093;-50
2024/04/20 14:38:59;;;;;;;2.03;1.20;;;;;;;;;;10950321;27;20110;-55
2024/04/20 14:44:00;;;;;;;8.52;1.73;;;;;;;;;;10978668;27;20348;-52
2024/04/20 14:49:01;;;;;;;3.85;1.30;;;;;;;;;;10980241;27;20045;-54
2024/04/20 14:54:02;;;;;;;2.42;1.42;;;;;;;;;;10973549;26;20474;-52
2024/04/20 14:59:03;;;;;;;2.42;1.08;;;;;;;;;;10979362;26;20082;-49
2024/04/20 15:04:04;;;;;;;5.80;1.73;;;;;;;;;;11000582;26;20021;-52
2024/04/20 15:09:06;;;;;;;2.70;1.00;;;;;;;;;;11032983;26;20005;-48
2024/04/20 15:14:07;;;;;;;1.10;1.00;;;;;;;;;;11019912;26;20008;-46
2024/04/20 15:19:08;;;;;;;4.85;1.20;;;;;;;;;;11021853;26;20097;-47
2024/04/20 15:24:09;;;;;;;2.15;1.00;;;;;;;;;;11013626;26;20252;-45
2024/04/20 15:29:10;;;;;;;7.10;1.20;;;;;;;;;;11038571;26;20382;-50
2024/04/20 15:34:12;;;;;;;0.90;0.90;;;;;;;;;;11055526;26;20020;-56
2024/04/20 15:39:13;;;;;;;0.70;0.70;;;;;;;;;;11051099;26;20111;-46
2024/04/20 15:44:14;;;;;;;2.95;1.00;;;;;;;;;;11022148;26;20334;-46
2024/04/20 15:49:15;;;;;;;2.65;1.23;;;;;;;;;;11028126;26;20037;-48
2024/04/20 15:54:17;;;;;;;1.02;1.00;;;;;;;;;;11040917;26;20036;-56
2024/04/20 15:59:18;;;;;;;14.98;1.85;;;;;;;;;;11043593;26;20012;-52
2024/04/20 16:04:19;;;;;;;9.82;1.80;;;;;;;;;;11024672;26;20056;-49
2024/04/20 16:09:20;;;;;;;3.35;1.98;;;;;;;;;;11038227;26;20078;-50
2024/04/20 16:14:21;;;;;;;9.18;1.58;;;;;;;;;;11001330;26;20013;-50
2024/04/20 16:19:22;;;;;;;6.20;1.10;;;;;;;;;;11041084;26;20005;-53
2024/04/20 16:24:23;;;;;;;6.63;1.05;;;;;;;;;;11030665;26;20139;-48
2024/04/20 16:29:24;;;;;;;3.75;1.10;;;;;;;;;;11027564;26;20001;-48
2024/04/20 16:34:29;;;;;;;1.30;1.10;;;;;;;;;;11031305;26;20617;-48
2024/04/20 16:39:30;;;;;;;2.95;1.40;;;;;;;;;;11013565;26;20461;-52
2024/04/20 16:44:34;;;;;;;1.00;1.00;;;;;;;;;;11022257;26;20001;-49
2024/04/20 16:49:35;;;;;;;1.85;1.05;;;;;;;;;;11027211;26;19998;-51
2024/04/20 16:54:36;;;;;;;4.43;1.13;;;;;;;;;;11025068;26;19996;-49
2024/04/20 16:59:39;;;;;;;3.40;1.27;;;;;;;;;;11035522;26;20418;-49
2024/04/20 17:04:40;;;;;;;2.60;1.08;;;;;;;;;;11006358;26;21190;-48
2024/04/20 17:09:41;;;;;;;2.20;1.00;;;;;;;;;;10949996;26;20105;-49
2024/04/20 17:14:42;;;;;;;1.58;1.20;;;;;;;;;;10934848;27;20235;-50
2024/04/20 17:19:46;;;;;;;2.75;1.00;;;;;;;;;;10999784;26;20013;-54
2024/04/20 17:24:47;;;;;;;1.25;1.10;;;;;;;;;;10975693;26;20100;-50
2024/04/20 17:29:48;;;;;;;1.83;1.10;;;;;;;;;;10969048;26;20006;-50
2024/04/20 17:34:49;;;;;;;1.30;1.20;;;;;;;;;;10977624;26;20000;-48
2024/04/20 17:39:51;;;;;;;0.80;0.80;;;;;;;;;;10981649;26;20364;-61
2024/04/20 17:44:52;;;;;;;1.95;0.90;;;;;;;;;;10985436;26;20486;-49
2024/04/20 17:49:53;;;;;;;1.08;0.90;;;;;;;;;;10980544;26;20350;-51
2024/04/20 17:54:54;;;;;;;1.13;1.00;;;;;;;;;;10974950;26;20469;-54
2024/04/20 17:59:55;;;;;;;1.83;1.00;;;;;;;;;;10971030;26;20017;-48
2024/04/20 18:04:56;;;;;;;1.42;1.05;;;;;;;;;;10955613;26;20045;-48
2024/04/20 18:09:57;;;;;;;1.00;1.00;;;;;;;;;;10997433;26;20009;-52
2024/04/20 18:14:59;;;;;;;1.65;1.00;;;;;;;;;;10971827;26;20088;-50
2024/04/20 18:20:00;;;;;;;1.20;0.90;;;;;;;;;;10973941;26;20017;-51
2024/04/20 18:25:02;;;;;;;1.83;1.02;;;;;;;;;;10979440;26;20041;-55
2024/04/20 18:30:03;;;;;;;2.20;1.30;;;;;;;;;;10967657;26;20010;-52
2024/04/20 18:35:05;;;;;;;4.90;1.05;;;;;;;;;;11009424;26;20410;-50
2024/04/20 18:40:07;;;;;;;3.55;1.35;;;;;;;;;;10946618;26;20486;-51
2024/04/20 18:45:08;;;;;;;1.52;0.90;;;;;;;;;;10958114;26;20006;-49
2024/04/20 18:50:09;;;;;;;1.17;1.08;;;;;;;;;;10962558;26;20082;-51
2024/04/20 18:55:10;;;;;;;1.98;1.05;;;;;;;;;;10991778;26;20079;-48
2024/04/20 19:00:12;;;;;;;1.05;1.00;;;;;;;;;;10963277;26;20020;-49
2024/04/20 19:05:13;;;;;;;3.20;1.10;;;;;;;;;;10993657;26;20056;-51
2024/04/20 19:10:15;;;;;;;0.90;0.90;;;;;;;;;;10963560;26;19998;-52
2024/04/20 19:15:20;;;;;;;7.85;1.40;;;;;;;;;;10985887;26;20034;-54
2024/04/20 19:20:21;;;;;;;1.02;1.02;;;;;;;;;;10968797;26;20021;-51
2024/04/20 19:25:22;;;;;;;1.10;1.00;;;;;;;;;;10985352;26;20052;-52
2024/04/20 19:30:23;;;;;;;0.85;0.85;;;;;;;;;;10968025;26;20091;-57
2024/04/20 19:35:26;;;;;;;1.23;1.10;;;;;;;;;;10980059;26;20006;-52
2024/04/20 19:40:27;;;;;;;1.35;1.10;;;;;;;;;;10905292;26;20524;-58
2024/04/20 19:45:32;;;;;;;0.98;0.90;;;;;;;;;;10888381;26;20089;-57
2024/04/20 19:50:37;;;;;;;1.13;0.98;;;;;;;;;;10944732;26;20013;-56
2024/04/20 19:55:38;;;;;;;1.00;0.93;;;;;;;;;;11024261;26;20458;-54
2024/04/20 20:00:39;;;;;;;1.55;1.08;;;;;;;;;;11005423;21;20024;-64
2024/04/20 20:05:40;;;;;;;3.00;1.25;;;;;;;;;;11040323;26;20004;-63
2024/04/20 20:10:42;;;;;;;5.07;1.45;;;;;;;;;;11013616;26;20190;-64
2024/04/20 20:15:43;;;;;;;1.15;1.05;;;;;;;;;;11043219;26;20443;-65
2024/04/20 20:20:45;;;;;;;6.93;1.20;;;;;;;;;;11056094;26;20061;-64
2024/04/20 20:25:46;;;;;;;5.63;1.27;;;;;;;;;;11053923;26;20439;-61
2024/04/20 20:31:03;;;;;;;5.45;1.17;;;;;;;;;;11037754;26;20012;-61
2024/04/20 20:36:04;;;;;;;7.32;1.60;;;;;;;;;;11052536;26;20027;-63
2024/04/20 20:41:06;;;;;;;19.60;2.65;;;;;;;;;;11022327;26;20006;-63
2024/04/20 20:46:08;;;;;;;10.95;2.10;;;;;;;;;;11024713;26;20091;-60
2024/04/20 20:51:13;;;;;;;16.08;2.65;;;;;;;;;;11044105;26;20007;-63
2024/04/20 20:56:14;;;;;;;5.57;1.60;;;;;;;;;;11016522;26;20000;-63
2024/04/20 21:01:15;;;;;;;6.47;1.63;;;;;;;;;;10952934;26;20516;-63
2024/04/20 21:06:16;;;;;;;11.25;1.98;;;;;;;;;;10988092;26;20399;-63
2024/04/20 21:11:17;;;;;;;7.13;1.73;;;;;;;;;;11036067;26;20002;-63
2024/04/20 21:16:18;;;;;;;10.68;1.42;;;;;;;;;;11032956;26;20002;-63
2024/04/20 21:21:23;;;;;;;16.25;1.67;;;;;;;;;;11035859;26;20092;-63
2024/04/20 21:26:25;;;;;;;6.43;1.98;;;;;;;;;;10983794;26;20000;-63
2024/04/20 21:31:29;;;;;;;7.30;1.70;;;;;;;;;;10965430;26;20012;-63
2024/04/20 21:36:34;;;;;;;3.85;2.05;;;;;;;;;;10968277;26;20005;-63
2024/04/20 21:41:35;;;;;;;5.90;1.55;;;;;;;;;;10974368;26;20983;-63
2024/04/20 21:46:37;;;;;;;5.22;1.55;;;;;;;;;;11042956;26;20017;-63
2024/04/20 21:51:38;;;;;;;5.78;1.73;;;;;;;;;;11015814;26;19997;-63
2024/04/20 21:56:40;;;;;;;4.32;1.50;;;;;;;;;;11042445;26;20000;-63
2024/04/20 22:01:41;;;;;;;5.13;1.20;;;;;;;;;;11119840;26;20086;-63
2024/04/20 22:06:43;;;;;;;4.25;1.67;;;;;;;;;;11118147;26;20051;-63
2024/04/20 22:11:44;;;;;;;4.50;1.60;;;;;;;;;;11117766;26;20099;-63
2024/04/20 22:16:45;;;;;;;10.13;1.65;;;;;;;;;;11118872;26;20111;-63
2024/04/20 22:21:46;;;;;;;3.53;1.30;;;;;;;;;;11114715;26;20032;-63
2024/04/20 22:26:47;;;;;;;3.60;1.45;;;;;;;;;;11115066;26;20004;-63
2024/04/20 22:31:48;;;;;;;2.05;1.30;;;;;;;;;;11113206;26;20040;-63
2024/04/20 22:36:49;;;;;;;5.53;1.50;;;;;;;;;;11100994;26;20510;-63
2024/04/20 22:41:50;;;;;;;5.35;1.38;;;;;;;;;;11115275;26;20020;-63
2024/04/20 22:46:52;;;;;;;1.38;1.23;;;;;;;;;;11112319;26;20028;-63
2024/04/20 22:51:53;;;;;;;3.42;2.08;;;;;;;;;;11092743;26;20503;-63
2024/04/20 22:56:54;;;;;;;3.67;1.40;;;;;;;;;;11105877;26;20008;-63
2024/04/20 23:01:55;;;;;;;5.18;1.27;;;;;;;;;;11104398;26;20032;-63
2024/04/20 23:06:56;;;;;;;2.55;1.42;;;;;;;;;;11110177;26;20109;-63
2024/04/20 23:11:57;;;;;;;3.25;1.15;;;;;;;;;;11112244;26;20028;-62
2024/04/20 23:16:59;;;;;;;5.40;1.52;;;;;;;;;;11090699;26;20051;-64
2024/04/20 23:22:00;;;;;;;3.15;1.80;;;;;;;;;;11109642;26;20436;-64
2024/04/20 23:27:01;;;;;;;2.30;1.30;;;;;;;;;;11114773;26;20036;-63
2024/04/20 23:32:03;;;;;;;3.70;1.15;;;;;;;;;;11124880;26;20115;-63
2024/04/20 23:37:04;;;;;;;10.80;1.95;;;;;;;;;;11118312;26;20004;-64
2024/04/20 23:42:05;;;;;;;2.65;1.77;;;;;;;;;;11125302;26;20283;-63
2024/04/20 23:47:06;;;;;;;1.80;1.35;;;;;;;;;;11126906;26;20000;-63
2024/04/20 23:52:08;;;;;;;2.88;1.35;;;;;;;;;;11126583;26;20004;-64
2024/04/20 23:57:09;;;;;;;1.75;1.23;;;;;;;;;;11123302;26;20378;-64
